Time;durP1;ratioP1;P1;durP2;ratioP2;P2;SDS_P1;SDS_P2;PMS_P1;PMS_P2;Temp;Humidity;BMP_temperature;BMP_pressure;BME280_temperature;BME280_humidity;BME280_pressure;Samples;Min_cycle;Max_cycle;Signal;HPM_P1;HPM_P2
2021/09/23 00:08:16;;;;;;;4.47;3.60;;;23.00;49.80;;;;;;31247322;28;20045;-48
2021/09/23 00:23:18;;;;;;;2.85;2.58;;;23.00;49.80;;;;;;31244738;28;20050;-45
2021/09/23 00:38:21;;;;;;;3.80;2.85;;;23.00;49.80;;;;;;31244047;28;20061;-45
2021/09/23 00:53:23;;;;;;;3.13;2.58;;;23.00;49.80;;;;;;31243027;28;20057;-46
2021/09/23 01:08:25;;;;;;;3.17;2.88;;;23.00;49.80;;;;;;31242568;28;20053;-46
2021/09/23 01:23:27;;;;;;;2.75;2.38;;;23.00;49.80;;;;;;31267298;28;20053;-47
2021/09/23 01:38:29;;;;;;;26.90;19.23;;;23.00;49.80;;;;;;31267356;28;20049;-48
2021/09/23 01:53:32;;;;;;;14.52;10.68;;;22.90;48.50;;;;;;31259075;28;20046;-40
2021/09/23 02:08:34;;;;;;;9.93;6.97;;;22.90;50.00;;;;;;31231141;28;20046;-49
2021/09/23 02:23:37;;;;;;;5.53;4.40;;;23.00;50.10;;;;;;31152040;28;20049;-53
2021/09/23 02:38:39;;;;;;;3.00;2.60;;;23.00;50.20;;;;;;31162396;28;20054;-56
2021/09/23 02:53:43;;;;;;;15.88;9.80;;;23.00;50.30;;;;;;31249483;28;20042;-46
2021/09/23 03:08:45;;;;;;;5.95;4.88;;;22.80;47.10;;;;;;31255881;28;20042;-42
2021/09/23 03:23:47;;;;;;;11.02;7.38;;;22.70;45.70;;;;;;31255374;28;20064;-42
2021/09/23 03:38:51;;;;;;;4.43;3.58;;;22.50;44.90;;;;;;31254579;28;20072;-51
2021/09/23 03:53:53;;;;;;;22.23;8.85;;;22.60;44.10;;;;;;31247765;28;20540;-42
2021/09/23 04:08:55;;;;;;;14.70;7.97;;;22.40;47.00;;;;;;31255129;28;20049;-46
2021/09/23 04:23:58;;;;;;;11.02;5.60;;;22.40;47.30;;;;;;31248548;28;20053;-53
2021/09/23 04:39:00;;;;;;;22.52;4.72;;;22.40;46.70;;;;;;31247051;28;20046;-41
2021/09/23 04:54:03;;;;;;;14.70;5.60;;;22.40;46.10;;;;;;31268255;28;20046;-40
2021/09/23 05:09:05;;;;;;;18.30;4.75;;;22.00;46.60;;;;;;31271594;28;20046;-40
2021/09/23 05:24:09;;;;;;;100.97;77.15;;;22.20;49.60;;;;;;31268938;28;20046;-48
2021/09/23 05:39:11;;;;;;;29.73;22.70;;;22.00;48.60;;;;;;31261892;28;20054;-44
2021/09/23 05:54:13;;;;;;;30.05;22.73;;;21.60;46.50;;;;;;31260850;28;20057;-45
2021/09/23 06:09:15;;;;;;;215.55;167.82;;;22.00;46.20;;;;;;31257585;28;20045;-43
2021/09/23 06:24:17;;;;;;;59.03;46.20;;;21.60;46.20;;;;;;31257654;28;20042;-46
2021/09/23 06:39:19;;;;;;;47.00;35.50;;;21.90;48.10;;;;;;31256120;28;20056;-45
2021/09/23 06:54:21;;;;;;;34.72;22.50;;;21.80;47.80;;;;;;31252083;28;20061;-42
2021/09/23 07:09:24;;;;;;;31.90;21.77;;;21.90;46.60;;;;;;31246910;28;20045;-42
2021/09/23 07:24:26;;;;;;;25.65;17.73;;;21.90;47.00;;;;;;31247962;28;20042;-43
2021/09/23 07:39:28;;;;;;;22.40;16.17;;;21.90;46.60;;;;;;31250056;28;20080;-44
2021/09/23 07:54:30;;;;;;;16.13;12.10;;;21.80;47.00;;;;;;31264616;28;20502;-46
2021/09/23 08:09:32;;;;;;;15.10;10.75;;;21.70;46.20;;;;;;31246888;28;20038;-43
2021/09/23 08:24:35;;;;;;;17.15;9.95;;;21.70;46.50;;;;;;31255355;28;20042;-46
2021/09/23 08:39:37;;;;;;;10.95;7.72;;;21.80;45.90;;;;;;31269616;28;20057;-45
2021/09/23 08:54:40;;;;;;;10.02;8.10;;;21.70;46.40;;;;;;31268457;28;20046;-41
2021/09/23 09:09:45;;;;;;;9.35;7.32;;;21.60;47.10;;;;;;31267261;28;20042;-43
2021/09/23 09:25:12;;;;;;;9.57;5.90;;;21.70;46.40;;;;;;31264450;28;20049;-47
2021/09/23 09:40:18;;;;;;;7.38;5.65;;;21.70;46.80;;;;;;31262036;28;20050;-44
2021/09/23 09:55:20;;;;;;;5.80;4.90;;;21.70;46.40;;;;;;31261208;28;20059;-48
2021/09/23 10:10:28;;;;;;;5.88;5.07;;;21.60;45.80;;;;;;31259383;28;20061;-42
2021/09/23 10:25:32;;;;;;;5.35;4.00;;;21.60;46.10;;;;;;31257262;28;20053;-43
2021/09/23 10:40:37;;;;;;;4.60;3.92;;;21.60;46.40;;;;;;31256328;28;20053;-41
2021/09/23 10:55:41;;;;;;;4.03;3.53;;;21.60;46.30;;;;;;31254465;28;20121;-43
2021/09/23 11:10:44;;;;;;;4.93;3.80;;;21.50;46.20;;;;;;31253109;28;20042;-45
2021/09/23 11:25:50;;;;;;;3.80;3.33;;;21.50;45.90;;;;;;31267203;28;20052;-42
2021/09/23 11:40:53;;;;;;;4.82;3.65;;;21.50;45.90;;;;;;31250201;28;20050;-45
2021/09/23 11:56:05;;;;;;;5.00;3.88;;;21.50;45.70;;;;;;31247809;28;20057;-45
2021/09/23 12:11:12;;;;;;;6.05;3.50;;;21.60;45.90;;;;;;31247542;28;20042;-43
2021/09/23 12:26:21;;;;;;;4.03;3.17;;;21.60;46.30;;;;;;31246406;28;20045;-42
2021/09/23 12:41:24;;;;;;;9.45;3.83;;;21.70;46.20;;;;;;31226223;28;20050;-44
2021/09/23 12:56:27;;;;;;;17.33;3.78;;;21.70;46.20;;;;;;31122047;28;20042;-43
2021/09/23 13:11:29;;;;;;;8.73;2.97;;;21.60;45.20;;;;;;31211404;28;20041;-52
2021/09/23 13:26:31;;;;;;;7.75;3.33;;;21.90;45.30;;;;;;31273079;28;20038;-52
2021/09/23 13:41:34;;;;;;;6.57;2.70;;;21.90;44.40;;;;;;31269331;28;20069;-42
2021/09/23 13:56:36;;;;;;;5.78;3.05;;;21.90;45.20;;;;;;31267234;28;20057;-42
2021/09/23 14:11:38;;;;;;;3.70;2.55;;;22.00;45.30;;;;;;31264612;28;20038;-46
2021/09/23 14:26:42;;;;;;;3.45;2.30;;;21.90;45.30;;;;;;31263316;28;20042;-51
2021/09/23 14:41:46;;;;;;;6.78;2.50;;;21.90;45.40;;;;;;31263370;28;20065;-51
2021/09/23 14:56:48;;;;;;;3.40;2.40;;;22.00;45.30;;;;;;31256907;28;20060;-51
2021/09/23 15:11:52;;;;;;;20.42;4.32;;;22.00;45.40;;;;;;31248515;28;20049;-54
2021/09/23 15:27:04;;;;;;;8.73;2.70;;;21.70;43.30;;;;;;31253701;28;20053;-52
2021/09/23 15:42:06;;;;;;;10.50;2.67;;;21.90;43.70;;;;;;31242307;28;20137;-57
2021/09/23 15:57:09;;;;;;;8.27;2.38;;;21.90;43.40;;;;;;31239429;28;20046;-42
2021/09/23 16:12:11;;;;;;;8.00;2.58;;;21.70;42.90;;;;;;31249251;28;20057;-54
2021/09/23 16:27:13;;;;;;;12.75;3.78;;;21.90;45.00;;;;;;31244808;28;20042;-57
2021/09/23 16:42:15;;;;;;;14.63;2.67;;;21.90;46.60;;;;;;31129040;28;20062;-54
2021/09/23 16:57:19;;;;;;;8.05;2.55;;;22.00;46.80;;;;;;31180111;28;20057;-45
2021/09/23 17:12:21;;;;;;;12.65;3.25;;;22.20;46.20;;;;;;31235348;28;20119;-45
2021/09/23 17:27:24;;;;;;;9.30;3.42;;;22.00;48.50;;;;;;31235035;28;20033;-54
2021/09/23 17:42:26;;;;;;;13.02;2.42;;;22.20;49.30;;;;;;31264875;28;20046;-40
2021/09/23 17:57:28;;;;;;;13.95;3.33;;;22.10;48.90;;;;;;31262925;28;20038;-46
2021/09/23 18:12:31;;;;;;;16.08;3.80;;;22.30;49.20;;;;;;31159446;28;20073;-54
2021/09/23 18:27:33;;;;;;;5.60;3.58;;;22.20;48.20;;;;;;31194743;28;20068;-56
2021/09/23 18:42:36;;;;;;;9.27;2.70;;;22.30;47.70;;;;;;31223431;28;20058;-45
2021/09/23 18:57:38;;;;;;;4.47;2.67;;;22.30;48.20;;;;;;31263197;28;20056;-51
2021/09/23 19:12:43;;;;;;;4.32;2.55;;;22.10;47.00;;;;;;31255661;28;20045;-50
2021/09/23 19:27:48;;;;;;;12.68;2.80;;;22.20;47.80;;;;;;31250950;28;20041;-49
2021/09/23 19:42:51;;;;;;;17.80;12.65;;;22.30;47.60;;;;;;31245869;28;20057;-50
2021/09/23 19:57:54;;;;;;;13.85;9.55;;;22.40;47.10;;;;;;31253067;28;20056;-51
2021/09/23 20:12:58;;;;;;;33.97;25.90;;;22.40;47.40;;;;;;31256186;28;20054;-45
2021/09/23 20:28:01;;;;;;;13.10;10.57;;;22.40;48.30;;;;;;31253622;28;20053;-41
2021/09/23 20:43:03;;;;;;;8.35;6.43;;;22.50;48.10;;;;;;31201032;28;20054;-53
2021/09/23 20:58:15;;;;;;;5.47;4.35;;;22.50;48.30;;;;;;31132191;28;20061;-45
2021/09/23 21:13:17;;;;;;;2.88;2.55;;;22.50;48.40;;;;;;31130758;28;20057;-55
2021/09/23 21:28:20;;;;;;;23.17;13.73;;;22.50;48.70;;;;;;31128134;28;20046;-47
2021/09/23 21:43:22;;;;;;;10.43;8.65;;;22.50;48.20;;;;;;31176378;28;20106;-43
2021/09/23 21:58:24;;;;;;;7.32;5.25;;;22.60;48.40;;;;;;31152377;28;20057;-53
2021/09/23 22:13:27;;;;;;;4.22;3.38;;;22.50;48.80;;;;;;31142002;28;20411;-41
2021/09/23 22:28:29;;;;;;;2.95;2.53;;;22.50;48.70;;;;;;31141570;28;20043;-40
2021/09/23 22:43:31;;;;;;;1.85;1.40;;;22.50;48.60;;;;;;31258756;28;20046;-41
2021/09/23 22:58:34;;;;;;;1.02;0.90;;;22.50;48.90;;;;;;31260052;28;20045;-41
2021/09/23 23:13:36;;;;;;;1.40;0.90;;;22.40;48.80;;;;;;31259751;28;20053;-40
2021/09/23 23:28:39;;;;;;;0.32;0.32;;;22.40;49.00;;;;;;31257907;28;20049;-41
2021/09/23 23:43:42;;;;;;;0.25;0.25;;;22.40;49.30;;;;;;31253922;28;20061;-43
2021/09/23 23:58:44;;;;;;;1.48;0.30;;;22.40;49.30;;;;;;31251795;28;20052;-42
